Latest Conditions
At L.F.Wade Int. Airport
Recorded at 4:21 am
Showers
Temp.: 
23°C/73°F
Humidity: 
82%
Wind: 
SSE 11KT
or 13mph
UV Index: 
0
Island Observations
 
Observations
Tuesday, May 21, 2019

Observations are in local time and taken at least once an hour, or upon the start and end of specified events such as showers and thunderstorms.

Time Sky / Weather Wind Speed/Gusts Temp. R.H. Pressure
     knots (mph)  °C (°F)  %  mb / "Hg
 04:21 Overcast Showers SSE 11/0 (13/0) 23(73) 82 1017 / 30.03
 03:55 Overcast  SE 12/0 (14/0) 23(73) 81 1017 / 30.04
 02:55 Mostly Cloudy  SE 11/0 (13/0) 23(73) 82 1018 / 30.06
 01:55 Overcast  SE 9/0 (10/0) 23(73) 83 1019 / 30.08
 00:55 Overcast  SE 10/0 (12/0) 23(73) 84 1019 / 30.10
 23:55 Overcast  SE 10/0 (12/0) 23(73) 82 1020 / 30.11
 23:14 Overcast  SE 10/0 (12/0) 23(73) 83 1020 / 30.11
 22:55 Overcast  SE 10/0 (12/0) 23(73) 84 1020 / 30.11
 21:55 Overcast  SE 10/0 (12/0) 23(73) 83 1019 / 30.10
 20:55 Overcast  SE 9/0 (10/0) 23(73) 83 1019 / 30.10
 19:55 Overcast  SE 9/0 (10/0) 23(73) 81 1020 / 30.11
 18:55 Overcast  SE 9/0 (10/0) 23(74) 80 1020 / 30.11
 17:55 Overcast  SE 7/0 (8/0) 24(74) 81 1020 / 30.12
 16:55 Overcast  SSE 9/0 (10/0) 24(75) 79 1020 / 30.13
 16:20 Mostly Cloudy  SSE 9/0 (10/0) 24(75) 80 1020 / 30.13
 15:55 Mostly Cloudy  SE 8/0 (9/0) 25(76) 76 1020 / 30.13
 14:55 Mostly Cloudy  SSE 9/0 (10/0) 25(77) 75 1021 / 30.15
 13:55 Mostly Cloudy  SE 8/0 (9/0) 24(76) 77 1021 / 30.15
 12:55 Mostly Cloudy  SE 8/0 (9/0) 25(76) 74 1021 / 30.16
 11:55 Mostly Cloudy  ESE 8/0 (9/0) 24(76) 77 1021 / 30.16
 10:55 Mostly Cloudy  ENE 6/0 (7/0) 24(75) 80 1021 / 30.16
 09:55 Mostly Cloudy  SE 5/0 (6/0) 23(74) 81 1022 / 30.17
 08:55 Mostly Cloudy  ENE 5/0 (6/0) 23(73) 84 1022 / 30.17
 07:55 Mostly Cloudy  NE 4/0 (5/0) 22(72) 86 1022 / 30.17
 06:55 Mostly Cloudy  N 4/0 (5/0) 22(71) 87 1022 / 30.17
 05:55 Mostly Cloudy  N 3/0 (3/0) 21(69) 95 1021 / 30.15
 04:55 Mostly Cloudy  Calm 21(69) 94 1021 / 30.15
 03:55 Mostly Cloudy  NNE 2/0 (2/0) 21(70) 92 1021 / 30.15
 02:55 Mostly Cloudy  Calm 22(71) 88 1021 / 30.16
 02:23 Mostly Cloudy  VRB 1/0 (1/0) 21(71) 90 1021 / 30.16
 01:55 Mostly Cloudy  NW 1/0 (1/0) 22(71) 91 1022 / 30.17
 00:55 Mostly Cloudy  VRB 1/0 (1/0) 21(71) 90 1022 / 30.18
 23:55 Partly Cloudy  Calm 22(71) 90 1022 / 30.18
 22:55 Mostly Cloudy  VRB 2/0 (2/0) 22(71) 88 1022 / 30.18
 21:55 Mostly Cloudy  N 4/0 (5/0) 22(72) 86 1022 / 30.17
 21:25 Mostly Cloudy  N 4/0 (5/0) 22(72) 85 1022 / 30.18
 20:55 Mostly Cloudy  N 3/0 (3/0) 23(73) 84 1022 / 30.18
 19:55 Mostly Cloudy  N 6/0 (7/0) 23(73) 83 1022 / 30.17
 18:55 Partly Cloudy  NNW 6/0 (7/0) 24(74) 80 1021 / 30.15
 18:23 Partly Cloudy  NNW 6/0 (7/0) 24(75) 78 1021 / 30.15
 17:55 Mostly Cloudy  N 7/0 (8/0) 24(76) 76 1021 / 30.15
 16:55 Few Clouds  NW 6/0 (7/0) 25(76) 75 1021 / 30.15
 15:55 Few Clouds  NNW 9/0 (10/0) 24(76) 75 1021 / 30.16
 14:55 Few Clouds  NNW 10/0 (12/0) 25(76) 73 1022 / 30.17
 13:55 Few Clouds  NW 10/0 (12/0) 25(76) 73 1022 / 30.19
 12:55 Few Clouds  NW 10/0 (12/0) 24(75) 76 1022 / 30.19
 11:55 Few Clouds  W 8/0 (9/0) 24(74) 75 1022 / 30.19
 10:55 Few Clouds  NW 9/0 (10/0) 24(75) 75 1022 / 30.19
 09:55 Few Clouds  WNW 9/0 (10/0) 23(74) 75 1022 / 30.18
 08:55 Few Clouds  WNW 9/0 (10/0) 23(73) 78 1022 / 30.17
 07:55 Mostly Cloudy  WNW 9/0 (10/0) 22(72) 80 1021 / 30.16
 06:55 Few Clouds  WNW 9/0 (10/0) 22(71) 78 1021 / 30.15
 05:55 Few Clouds  W 10/0 (12/0) 22(71) 79 1020 / 30.13
 04:55 Partly Cloudy  WNW 9/0 (10/0) 22(71) 79 1020 / 30.12
 03:55 Partly Cloudy  W 10/0 (12/0) 22(71) 80 1020 / 30.12
 02:55 Partly Cloudy  W 10/0 (12/0) 22(71) 80 1020 / 30.12
 01:55 Partly Cloudy  W 9/0 (10/0) 22(71) 79 1021 / 30.14
 00:55 Partly Cloudy  W 9/0 (10/0) 22(71) 80 1021 / 30.15
 23:55 Partly Cloudy  W 9/0 (10/0) 22(72) 79 1021 / 30.15
 22:55 Mostly Cloudy  W 8/0 (9/0) 22(72) 75 1021 / 30.15
 21:55 Mostly Cloudy  W 8/0 (9/0) 22(72) 75 1021 / 30.14
 20:55 Mostly Cloudy  W 8/0 (9/0) 22(72) 74 1020 / 30.13
 19:55 Mostly Cloudy  WSW 9/0 (10/0) 22(72) 74 1020 / 30.12
 18:55 Mostly Cloudy  WSW 8/0 (9/0) 23(73) 70 1020 / 30.11
 17:55 Mostly Cloudy  W 9/0 (10/0) 23(74) 70 1020 / 30.11
 16:55 Mostly Cloudy  W 9/0 (10/0) 24(75) 66 1020 / 30.11
 15:55 Mostly Cloudy  W 10/0 (12/0) 24(75) 65 1020 / 30.12
 14:55 Mostly Cloudy  W 8/0 (9/0) 24(75) 64 1020 / 30.12
 13:55 Few Clouds  W 8/0 (9/0) 24(75) 62 1021 / 30.14
 12:55 Few Clouds  W 8/0 (9/0) 23(74) 66 1021 / 30.14
 11:55 Few Clouds  WSW 8/0 (9/0) 23(73) 66 1021 / 30.15
 10:55 Partly Cloudy  W 7/0 (8/0) 23(73) 67 1021 / 30.15
 09:55 Mostly Cloudy  W 7/0 (8/0) 22(72) 69 1021 / 30.15
 08:55 Few Clouds  W 6/0 (7/0) 22(71) 66 1021 / 30.14
 07:55 Few Clouds  WNW 6/0 (7/0) 21(70) 67 1020 / 30.13
 06:55 Few Clouds  WNW 4/0 (5/0) 20(68) 65 1020 / 30.12
 05:55 Partly Cloudy  W 3/0 (3/0) 20(67) 71 1019 / 30.09
 04:55 Partly Cloudy  WNW 3/0 (3/0) 20(68) 71 1019 / 30.10
 03:55 Few Clouds  WNW 3/0 (3/0) 20(68) 72 1019 / 30.10
 02:55 Few Clouds  WNW 3/0 (3/0) 20(68) 73 1020 / 30.11
 01:55 Few Clouds  WNW 3/0 (3/0) 20(69) 71 1020 / 30.12
 00:55 Few Clouds  WNW 2/0 (2/0) 20(69) 71 1020 / 30.13
 23:55 Few Clouds  NW 3/0 (3/0) 20(69) 73 1020 / 30.13
 22:55 Few Clouds  NW 4/0 (5/0) 21(70) 70 1020 / 30.12
 21:55 Few Clouds  NNW 5/0 (6/0) 21(70) 69 1020 / 30.11
 20:55 Partly Cloudy  WNW 9/0 (10/0) 22(71) 69 1019 / 30.09
 19:55 Partly Cloudy  WNW 10/0 (12/0) 22(71) 65 1019 / 30.09
 18:55 Mostly Cloudy  WNW 12/0 (14/0) 22(72) 66 1019 / 30.08
 17:55 Few Clouds  W 12/0 (14/0) 22(72) 61 1019 / 30.08
 16:55 Partly Cloudy  W 11/0 (13/0) 23(73) 57 1019 / 30.08
 15:55 Few Clouds  W 11/0 (13/0) 23(73) 57 1019 / 30.08
 14:55 Few Clouds  WNW 10/0 (12/0) 23(73) 56 1019 / 30.08
 13:55 Partly Cloudy  WNW 12/0 (14/0) 23(73) 56 1019 / 30.09
 12:55 Few Clouds  W 10/0 (12/0) 22(72) 57 1019 / 30.09
 11:55 Partly Cloudy  WNW 8/0 (9/0) 22(71) 56 1019 / 30.09
 10:55 Partly Cloudy  WNW 10/0 (12/0) 22(71) 55 1019 / 30.08
 09:55 Few Clouds  NW 10/0 (12/0) 22(71) 55 1018 / 30.07
 08:55 Partly Cloudy  NW 11/0 (13/0) 21(70) 53 1018 / 30.05
 07:55 Partly Cloudy  NNW 12/0 (14/0) 20(69) 56 1017 / 30.04
 06:55 Partly Cloudy  NW 12/0 (14/0) 20(68) 56 1017 / 30.02
Island AWOS